createdAt,value
2022-10-11T00:00:49.275Z,5.32
2022-10-11T00:05:50.977Z,5.47
2022-10-11T00:11:04.680Z,5.63
2022-10-11T00:16:13.110Z,6.28
2022-10-11T00:21:15.728Z,5.68
2022-10-11T00:26:17.963Z,5.45
2022-10-11T00:31:20.008Z,6.33
2022-10-11T00:36:22.680Z,7.15
2022-10-11T00:41:24.460Z,6.03
2022-10-11T00:46:29.769Z,6.05
2022-10-11T00:51:35.834Z,6.50
2022-10-11T00:56:39.940Z,6.57
2022-10-11T01:01:41.803Z,7.47
2022-10-11T01:06:44.761Z,7.07
2022-10-11T01:11:48.224Z,6.60
2022-10-11T01:17:03.726Z,6.18
2022-10-11T01:22:27.443Z,7.10
2022-10-11T01:27:38.672Z,6.28
2022-10-11T01:32:43.068Z,8.73
2022-10-11T01:37:51.849Z,7.67
2022-10-11T01:42:55.820Z,7.70
2022-10-11T01:48:07.226Z,6.60
2022-10-11T01:53:27.686Z,7.43
2022-10-11T01:58:47.176Z,7.03
2022-10-11T02:04:23.025Z,6.53
2022-10-11T02:09:33.659Z,5.83
2022-10-11T02:14:39.429Z,5.13
2022-10-11T02:19:50.725Z,6.30
2022-10-11T02:24:55.995Z,5.53
2022-10-11T02:30:02.832Z,6.13
2022-10-11T02:35:05.152Z,5.90
2022-10-11T02:40:06.873Z,5.57
2022-10-11T02:45:17.360Z,4.68
2022-10-11T02:50:19.192Z,5.70
2022-10-11T02:55:21.000Z,4.38
2022-10-11T03:00:23.077Z,4.45
2022-10-11T03:05:24.769Z,4.43
2022-10-11T03:10:26.559Z,4.30
2022-10-11T03:15:28.704Z,3.63
2022-10-11T03:20:30.396Z,4.07
2022-10-11T03:25:32.047Z,4.80
2022-10-11T03:30:33.773Z,4.20
2022-10-11T03:35:35.426Z,4.30
2022-10-11T03:40:37.093Z,3.90
2022-10-11T03:45:39.508Z,3.88
2022-10-11T03:50:41.200Z,4.60
2022-10-11T03:55:42.939Z,4.10
2022-10-11T04:00:44.656Z,5.32
2022-10-11T04:05:46.371Z,4.28
2022-10-11T04:10:48.844Z,4.53
2022-10-11T04:15:50.597Z,4.55
2022-10-11T04:20:52.267Z,4.55
2022-10-11T04:25:53.988Z,4.25
2022-10-11T04:30:55.629Z,4.15
2022-10-11T04:35:57.420Z,3.83
2022-10-11T04:41:12.899Z,4.00
2022-10-11T04:46:14.611Z,3.90
2022-10-11T04:51:16.666Z,4.05
2022-10-11T04:56:18.376Z,3.25
2022-10-11T05:01:21.015Z,3.95
2022-10-11T05:06:22.672Z,3.75
2022-10-11T05:11:24.417Z,3.47
2022-10-11T05:16:26.266Z,3.47
2022-10-11T05:21:29.843Z,3.22
2022-10-11T05:26:31.526Z,3.35
2022-10-11T05:31:33.246Z,3.08
2022-10-11T05:36:34.942Z,3.37
2022-10-11T05:41:36.706Z,3.00
2022-10-11T05:46:39.266Z,3.28
2022-10-11T05:51:40.939Z,3.47
2022-10-11T05:56:42.615Z,3.35
2022-10-11T06:01:44.361Z,3.30
2022-10-11T06:06:46.279Z,3.15
2022-10-11T06:11:48.227Z,3.55
2022-10-11T06:16:50.105Z,3.55
2022-10-11T06:21:51.933Z,3.30
2022-10-11T06:26:53.688Z,3.30
2022-10-11T06:31:55.376Z,3.50
2022-10-11T06:36:57.075Z,3.00
2022-10-11T06:41:58.819Z,4.30
2022-10-11T06:47:00.462Z,4.77
2022-10-11T06:52:02.222Z,4.47
2022-10-11T06:57:03.979Z,4.40
2022-10-11T07:02:05.731Z,4.32
2022-10-11T07:07:07.489Z,3.90
2022-10-11T07:12:09.200Z,3.58
2022-10-11T07:17:10.858Z,3.65
2022-10-11T07:22:12.625Z,4.30
2022-10-11T07:27:14.440Z,3.67
2022-10-11T07:32:16.251Z,4.20
2022-10-11T07:37:17.936Z,4.65
2022-10-11T07:42:19.624Z,4.78
2022-10-11T07:47:21.333Z,4.30
2022-10-11T07:52:22.994Z,3.80
2022-10-11T07:57:24.679Z,4.07
2022-10-11T08:02:26.383Z,4.72
2022-10-11T08:07:28.072Z,3.67
2022-10-11T08:12:29.884Z,3.70
2022-10-11T08:17:31.988Z,4.20
2022-10-11T08:22:33.708Z,4.43
2022-10-11T08:27:35.422Z,4.50
2022-10-11T08:32:37.098Z,3.93
2022-10-11T08:37:38.788Z,4.60
2022-10-11T08:42:46.197Z,3.70
2022-10-11T08:47:48.336Z,3.90
2022-10-11T08:53:22.192Z,4.20
2022-10-11T08:58:45.301Z,3.80
2022-10-11T09:03:48.340Z,3.65
2022-10-11T09:08:52.724Z,3.55
2022-10-11T09:14:02.019Z,3.80
2022-10-11T09:19:39.327Z,3.85
2022-10-11T09:25:11.048Z,3.53
2022-10-11T09:30:17.549Z,4.57
2022-10-11T09:35:21.738Z,4.13
2022-10-11T09:40:44.525Z,4.37
2022-10-11T09:45:49.429Z,3.80
2022-10-11T09:50:54.124Z,4.63
2022-10-11T09:56:04.446Z,4.43
2022-10-11T10:01:09.197Z,4.13
2022-10-11T10:06:10.811Z,4.20
2022-10-11T10:11:13.426Z,5.13
2022-10-11T10:16:25.686Z,4.55
2022-10-11T10:21:34.095Z,5.43
2022-10-11T10:26:35.776Z,5.00
2022-10-11T10:32:12.988Z,5.53
2022-10-11T10:37:33.383Z,5.20
2022-10-11T10:42:35.408Z,4.97
2022-10-11T10:47:58.833Z,5.85
2022-10-11T10:53:06.551Z,4.97
2022-10-11T10:58:26.174Z,6.00
2022-10-11T11:04:04.964Z,6.35
2022-10-11T11:09:20.979Z,5.57
2022-10-11T11:14:47.880Z,6.60
2022-10-11T11:20:16.612Z,5.85
2022-10-11T11:25:35.074Z,6.35
2022-10-11T11:30:45.743Z,6.15
2022-10-11T11:35:53.649Z,5.57
2022-10-11T11:41:02.439Z,5.50
2022-10-11T11:46:34.487Z,6.22
2022-10-11T11:51:41.326Z,4.55
2022-10-11T11:57:01.979Z,4.75
2022-10-11T12:02:12.844Z,5.10
2022-10-11T12:07:18.195Z,5.53
2022-10-11T12:12:37.495Z,5.88
2022-10-11T12:18:15.536Z,5.07
2022-10-11T12:23:29.152Z,5.30
2022-10-11T12:28:37.297Z,5.72
2022-10-11T12:33:39.027Z,5.30
2022-10-11T12:38:40.749Z,4.95
2022-10-11T12:43:48.391Z,5.45
2022-10-11T12:49:17.593Z,4.97
2022-10-11T12:54:34.495Z,5.53
2022-10-11T12:59:43.013Z,5.90
2022-10-11T13:04:44.763Z,5.80
2022-10-11T13:09:49.104Z,5.10
2022-10-11T13:15:01.429Z,4.50
2022-10-11T13:20:09.322Z,5.05
2022-10-11T13:25:22.824Z,4.60
2022-10-11T13:30:27.812Z,4.75
2022-10-11T13:35:38.849Z,4.28
2022-10-11T13:40:40.621Z,4.78
2022-10-11T13:45:42.406Z,4.63
2022-10-11T13:50:44.209Z,4.67
2022-10-11T13:56:00.264Z,4.20
2022-10-11T14:01:16.900Z,4.73
2022-10-11T14:06:18.726Z,4.50
2022-10-11T14:11:38.881Z,4.43
2022-10-11T14:16:40.695Z,3.90
2022-10-11T14:21:45.188Z,4.05
2022-10-11T14:26:52.507Z,3.83
2022-10-11T14:31:59.421Z,4.18
2022-10-11T14:37:01.239Z,3.50
2022-10-11T14:42:03.077Z,3.33
2022-10-11T14:47:05.393Z,4.20
2022-10-11T14:52:10.466Z,4.33
2022-10-11T14:57:12.609Z,4.53
2022-10-11T15:02:14.301Z,4.68
2022-10-11T15:07:16.007Z,4.37
2022-10-11T15:12:17.668Z,5.23
2022-10-11T15:17:19.345Z,5.35
2022-10-11T15:22:21.147Z,4.80
2022-10-11T15:27:22.808Z,5.70
2022-10-11T15:32:24.510Z,4.68
2022-10-11T15:37:26.183Z,5.20
2022-10-11T15:42:29.823Z,5.10
2022-10-11T15:47:31.554Z,5.68
2022-10-11T15:52:33.254Z,5.40
2022-10-11T15:57:34.946Z,5.45
2022-10-11T16:02:36.667Z,5.82
2022-10-11T16:07:38.337Z,5.53
2022-10-11T16:12:40.259Z,6.07
2022-10-11T16:17:42.157Z,5.70
2022-10-11T16:22:44.014Z,5.20
2022-10-11T16:27:45.832Z,5.23
2022-10-11T16:32:47.583Z,5.77
2022-10-11T16:37:49.302Z,6.07
2022-10-11T16:42:50.979Z,5.53
2022-10-11T16:47:52.800Z,5.47
2022-10-11T16:52:54.555Z,5.35
2022-10-11T16:57:56.245Z,5.55
2022-10-11T17:02:57.978Z,5.63
2022-10-11T17:07:59.643Z,7.10
2022-10-11T17:13:01.465Z,6.80
2022-10-11T17:18:03.747Z,5.97
2022-10-11T17:23:05.473Z,6.43
2022-10-11T17:28:07.185Z,6.13
2022-10-11T17:33:09.298Z,7.57
2022-10-11T17:38:10.992Z,6.28
2022-10-11T17:43:13.084Z,6.88
2022-10-11T17:48:14.796Z,6.95
2022-10-11T17:53:16.515Z,7.03
2022-10-11T17:58:18.515Z,7.32
2022-10-11T18:03:20.220Z,7.35
2022-10-11T18:08:22.608Z,7.32
2022-10-11T18:13:24.416Z,7.22
2022-10-11T18:18:26.148Z,7.05
2022-10-11T18:23:27.899Z,7.40
2022-10-11T18:28:29.637Z,7.68
2022-10-11T18:33:31.371Z,8.20
2022-10-11T18:38:34.116Z,7.30
2022-10-11T18:43:36.625Z,6.78
2022-10-11T18:48:45.828Z,9.13
2022-10-11T18:53:48.395Z,9.05
2022-10-11T18:58:51.390Z,8.97
2022-10-11T19:03:55.867Z,8.23
2022-10-11T19:09:02.113Z,7.30
2022-10-11T19:14:10.405Z,7.68
2022-10-11T19:19:12.698Z,8.53
2022-10-11T19:24:21.088Z,7.82
2022-10-11T19:29:25.132Z,7.57
2022-10-11T19:34:27.857Z,9.32
2022-10-11T19:39:29.661Z,9.68
2022-10-11T19:44:35.678Z,8.55
2022-10-11T19:49:40.458Z,8.73
2022-10-11T19:54:42.166Z,8.10
2022-10-11T19:59:43.840Z,8.23
2022-10-11T20:04:52.438Z,8.52
2022-10-11T20:09:54.782Z,7.97
2022-10-11T20:14:56.459Z,7.38
2022-10-11T20:19:58.244Z,8.02
2022-10-11T20:25:00.093Z,7.93
2022-10-11T20:30:02.095Z,7.97
2022-10-11T20:35:04.200Z,8.65
2022-10-11T20:40:06.228Z,7.13
2022-10-11T20:45:08.276Z,8.30
2022-10-11T20:50:09.977Z,7.25
2022-10-11T20:55:11.617Z,7.32
2022-10-11T21:00:13.816Z,7.22
2022-10-11T21:05:15.600Z,6.87
2022-10-11T21:10:17.272Z,7.70
2022-10-11T21:15:18.993Z,6.67
2022-10-11T21:20:20.670Z,6.73
2022-10-11T21:25:22.451Z,6.15
2022-10-11T21:30:24.207Z,6.70
2022-10-11T21:35:30.297Z,5.77
2022-10-11T21:40:31.970Z,6.05
2022-10-11T21:45:37.437Z,7.03
2022-10-11T21:50:39.127Z,7.03
2022-10-11T21:55:40.989Z,6.47
2022-10-11T22:00:42.745Z,7.30
2022-10-11T22:05:45.563Z,6.43
2022-10-11T22:10:54.716Z,5.87
2022-10-11T22:15:56.505Z,6.50
2022-10-11T22:21:07.823Z,6.60
2022-10-11T22:26:18.199Z,6.53
2022-10-11T22:31:21.287Z,6.40
2022-10-11T22:36:23.518Z,7.03
2022-10-11T22:41:25.265Z,6.65
2022-10-11T22:46:26.961Z,6.40
2022-10-11T22:51:28.666Z,5.90
2022-10-11T22:56:30.588Z,5.45
2022-10-11T23:01:32.323Z,6.93
2022-10-11T23:06:33.983Z,6.43
2022-10-11T23:11:35.648Z,5.97
2022-10-11T23:16:37.515Z,5.88
2022-10-11T23:21:39.220Z,5.32
2022-10-11T23:26:40.919Z,6.75
2022-10-11T23:31:42.606Z,6.22
2022-10-11T23:36:44.336Z,6.10
2022-10-11T23:41:45.992Z,6.32
2022-10-11T23:46:47.824Z,5.72
2022-10-11T23:51:49.523Z,5.30
2022-10-11T23:56:51.203Z,6.35
